Time,TemperatureF,DewpointF,PressureIn,WindDirection,WindDirectionDegrees,WindSpeedMPH,WindSpeedGustMPH,Humidity,HourlyPrecipIn,Conditions,Clouds,dailyrainin,SoftwareType,DateUTC
2013-05-14 00:05:00,42.0,31.5,30.04,WNW,297,1.0,15.0,66,0.00,,,0.00,Wunderground v.1.15,2013-05-14 04:05:00,
2013-05-14 00:11:00,41.7,31.2,30.04,NW,304,0.0,15.0,66,0.00,,,0.00,Wunderground v.1.15,2013-05-14 04:11:00,
2013-05-14 00:15:00,41.6,30.7,30.04,WNW,303,0.0,15.0,65,0.00,,,0.00,Wunderground v.1.15,2013-05-14 04:15:00,
2013-05-14 00:20:00,41.6,30.7,30.04,NNW,337,0.0,15.0,65,0.00,,,0.00,Wunderground v.1.15,2013-05-14 04:20:00,
2013-05-14 00:25:00,41.7,30.8,30.04,West,273,1.0,15.0,65,0.00,,,0.00,Wunderground v.1.15,2013-05-14 04:25:00,
2013-05-14 00:35:00,41.6,30.7,30.04,WNW,294,1.0,15.0,65,0.00,,,0.00,Wunderground v.1.15,2013-05-14 04:35:00,
2013-05-14 00:45:00,41.9,31.0,30.03,WNW,295,1.0,1.0,65,0.00,,,0.00,Wunderground v.1.15,2013-05-14 04:45:00,
2013-05-14 00:50:00,41.9,31.0,30.03,West,279,1.0,15.0,65,0.00,,,0.00,Wunderground v.1.15,2013-05-14 04:50:00,
2013-05-14 01:00:00,41.8,31.3,30.04,NNE,23,0.0,15.0,66,0.00,,,0.00,Wunderground v.1.15,2013-05-14 05:00:00,
2013-05-14 01:05:00,41.8,30.5,30.04,NW,305,1.0,15.0,64,0.00,,,0.00,Wunderground v.1.15,2013-05-14 05:05:00,
2013-05-14 01:10:00,41.9,31.4,30.04,NW,307,1.0,1.0,66,0.00,,,0.00,Wunderground v.1.15,2013-05-14 05:10:00,
2013-05-14 01:20:00,41.7,30.8,30.04,WSW,243,0.0,15.0,65,0.00,,,0.00,Wunderground v.1.15,2013-05-14 05:20:00,
2013-05-14 01:30:00,41.5,31.0,30.04,NW,304,0.0,15.0,66,0.00,,,0.00,Wunderground v.1.15,2013-05-14 05:30:00,
2013-05-14 01:40:00,41.2,31.1,30.04,WNW,303,0.0,15.0,67,0.00,,,0.00,Wunderground v.1.15,2013-05-14 05:40:00,
2013-05-14 01:50:00,40.9,31.1,30.04,NW,304,0.0,15.0,68,0.00,,,0.00,Wunderground v.1.15,2013-05-14 05:50:00,
2013-05-14 02:00:00,40.6,30.9,30.04,WNW,284,0.0,15.0,68,0.00,,,0.00,Wunderground v.1.15,2013-05-14 06:00:00,
2013-05-14 02:11:00,40.5,31.5,30.04,North,11,0.0,15.0,70,0.00,,,0.00,Wunderground v.1.15,2013-05-14 06:11:00,
2013-05-14 02:20:00,40.4,31.4,30.04,NW,316,0.0,15.0,70,0.00,,,0.00,Wunderground v.1.15,2013-05-14 06:20:00,
2013-05-14 02:30:00,40.2,31.2,30.04,SW,215,0.0,15.0,70,0.00,,,0.00,Wunderground v.1.15,2013-05-14 06:30:00,
2013-05-14 02:40:00,40.0,31.4,30.04,WNW,288,0.0,15.0,71,0.00,,,0.00,Wunderground v.1.15,2013-05-14 06:40:00,
2013-05-14 02:50:00,39.9,31.3,30.04,WNW,294,0.0,15.0,71,0.00,,,0.00,Wunderground v.1.15,2013-05-14 06:50:00,
2013-05-14 02:55:00,39.9,31.6,30.04,NNW,347,0.0,15.0,72,0.00,,,0.00,Wunderground v.1.15,2013-05-14 06:55:00,
2013-05-14 03:05:00,39.8,31.2,30.04,WNW,290,0.0,15.0,71,0.00,,,0.00,Wunderground v.1.15,2013-05-14 07:05:00,
2013-05-14 03:11:00,39.7,31.1,30.04,WNW,290,0.0,15.0,71,0.00,,,0.00,Wunderground v.1.15,2013-05-14 07:11:00,
2013-05-14 03:20:00,39.3,31.0,30.04,WNW,290,0.0,15.0,72,0.00,,,0.00,Wunderground v.1.15,2013-05-14 07:20:00,
2013-05-14 03:25:00,39.1,30.8,30.04,WNW,290,0.0,15.0,72,0.00,,,0.00,Wunderground v.1.15,2013-05-14 07:25:00,
2013-05-14 03:35:00,38.7,31.5,30.04,WNW,289,0.0,15.0,75,0.00,,,0.00,Wunderground v.1.15,2013-05-14 07:35:00,
2013-05-14 03:45:00,38.3,30.7,30.04,NW,318,0.0,15.0,74,0.00,,,0.00,Wunderground v.1.15,2013-05-14 07:45:00,
2013-05-14 03:55:00,38.0,31.1,30.04,NW,317,0.0,15.0,76,0.00,,,0.00,Wunderground v.1.15,2013-05-14 07:55:00,
2013-05-14 04:05:00,37.6,30.7,30.04,NW,318,0.0,15.0,76,0.00,,,0.00,Wunderground v.1.15,2013-05-14 08:05:00,
2013-05-14 04:10:00,37.5,30.9,30.04,NW,318,0.0,15.0,77,0.00,,,0.00,Wunderground v.1.15,2013-05-14 08:10:00,
2013-05-14 04:20:00,37.4,32.1,30.04,NW,318,0.0,15.0,81,0.00,,,0.00,Wunderground v.1.15,2013-05-14 08:20:00,
2013-05-14 04:25:00,37.6,33.2,30.04,NW,318,0.0,15.0,84,0.00,,,0.00,Wunderground v.1.15,2013-05-14 08:25:00,
2013-05-14 04:35:00,37.7,33.9,30.04,NNW,344,0.0,15.0,86,0.00,,,0.00,Wunderground v.1.15,2013-05-14 08:35:00,
2013-05-14 04:40:00,37.7,33.6,30.04,NNW,344,0.0,15.0,85,0.00,,,0.00,Wunderground v.1.15,2013-05-14 08:40:00,
2013-05-14 04:45:00,37.7,33.6,30.04,NNW,344,0.0,15.0,85,0.00,,,0.00,Wunderground v.1.15,2013-05-14 08:45:00,
2013-05-14 04:55:00,37.8,33.4,30.04,North,8,0.0,15.0,84,0.00,,,0.00,Wunderground v.1.15,2013-05-14 08:55:00,
2013-05-14 05:05:00,38.5,31.9,30.04,NW,309,0.0,15.0,77,0.00,,,0.00,Wunderground v.1.15,2013-05-14 09:05:00,
2013-05-14 05:11:00,38.8,32.2,30.04,NW,316,0.0,15.0,77,0.00,,,0.00,Wunderground v.1.15,2013-05-14 09:11:00,
2013-05-14 05:20:00,39.4,31.8,30.05,NW,307,1.0,15.0,74,0.00,,,0.00,Wunderground v.1.15,2013-05-14 09:20:00,
2013-05-14 05:30:00,39.7,31.8,30.05,North,356,0.0,15.0,73,0.00,,,0.00,Wunderground v.1.15,2013-05-14 09:30:00,
2013-05-14 05:35:00,39.9,32.3,30.05,WNW,297,1.0,1.0,74,0.00,,,0.00,Wunderground v.1.15,2013-05-14 09:35:00,
2013-05-14 05:45:00,40.0,32.7,30.05,WNW,295,0.0,15.0,75,0.00,,,0.00,Wunderground v.1.15,2013-05-14 09:45:00,
2013-05-14 05:50:00,40.2,31.9,30.05,NW,309,1.0,15.0,72,0.00,,,0.00,Wunderground v.1.15,2013-05-14 09:50:00,
2013-05-14 06:00:00,40.6,31.6,30.05,WSW,240,1.0,1.0,70,0.00,,,0.00,Wunderground v.1.15,2013-05-14 10:00:00,
2013-05-14 06:10:00,40.6,31.6,30.05,NNW,337,1.0,15.0,70,0.00,,,0.00,Wunderground v.1.15,2013-05-14 10:10:00,
2013-05-14 06:20:00,40.5,31.5,30.06,WNW,294,1.0,15.0,70,0.00,,,0.00,Wunderground v.1.15,2013-05-14 10:20:00,
2013-05-14 06:30:00,40.5,31.5,30.06,NW,307,1.0,15.0,70,0.00,,,0.00,Wunderground v.1.15,2013-05-14 10:30:00,
2013-05-14 06:40:00,41.2,32.2,30.06,WNW,296,1.0,15.0,70,0.00,,,0.00,Wunderground v.1.15,2013-05-14 10:40:00,
2013-05-14 06:50:00,41.6,32.2,30.06,WNW,294,1.0,15.0,69,0.00,,,0.00,Wunderground v.1.15,2013-05-14 10:50:00,
2013-05-14 07:00:00,42.5,32.7,30.06,WNW,297,2.0,2.0,68,0.00,,,0.00,Wunderground v.1.15,2013-05-14 11:00:00,
2013-05-14 07:11:00,43.4,32.8,30.06,NW,307,2.0,2.0,66,0.00,,,0.00,Wunderground v.1.15,2013-05-14 11:11:00,
2013-05-14 07:20:00,43.9,33.3,30.06,WNW,290,2.0,15.0,66,0.00,,,0.00,Wunderground v.1.15,2013-05-14 11:20:00,
2013-05-14 07:30:00,44.4,32.2,30.07,NNW,346,3.0,15.0,62,0.00,,,0.00,Wunderground v.1.15,2013-05-14 11:30:00,
2013-05-14 07:40:00,45.3,33.4,30.07,WSW,243,2.0,2.0,63,0.00,,,0.00,Wunderground v.1.15,2013-05-14 11:40:00,
2013-05-14 07:50:00,46.4,33.3,30.07,NW,310,2.0,2.0,60,0.00,,,0.00,Wunderground v.1.15,2013-05-14 11:50:00,
2013-05-14 07:55:00,46.8,33.2,30.07,WNW,293,2.0,15.0,59,0.00,,,0.00,Wunderground v.1.15,2013-05-14 11:55:00,
2013-05-14 08:05:00,47.7,33.6,30.07,NW,318,2.0,15.0,58,0.00,,,0.00,Wunderground v.1.15,2013-05-14 12:05:00,
2013-05-14 08:11:00,48.2,34.5,30.07,NW,312,2.0,15.0,59,0.00,,,0.00,Wunderground v.1.15,2013-05-14 12:11:00,
2013-05-14 08:20:00,48.9,33.9,30.07,NNW,337,2.0,15.0,56,0.00,,,0.00,Wunderground v.1.15,2013-05-14 12:20:00,
2013-05-14 08:25:00,49.2,34.6,30.07,North,359,2.0,15.0,57,0.00,,,0.00,Wunderground v.1.15,2013-05-14 12:25:00,
2013-05-14 08:35:00,49.5,32.6,30.06,WNW,293,3.0,15.0,52,0.00,,,0.00,Wunderground v.1.15,2013-05-14 12:35:00,
2013-05-14 08:45:00,49.7,33.7,30.06,NW,316,3.0,15.0,54,0.00,,,0.00,Wunderground v.1.15,2013-05-14 12:45:00,
2013-05-14 08:55:00,50.2,34.2,30.06,WNW,301,3.0,15.0,54,0.00,,,0.00,Wunderground v.1.15,2013-05-14 12:55:00,
2013-05-14 09:00:00,50.3,33.8,30.06,WNW,301,3.0,15.0,53,0.00,,,0.00,Wunderground v.1.15,2013-05-14 13:00:00,
2013-05-14 09:10:00,50.8,34.3,30.06,WNW,298,3.0,15.0,53,0.00,,,0.00,Wunderground v.1.15,2013-05-14 13:10:00,
2013-05-14 09:20:00,51.7,33.6,30.06,WNW,297,2.0,2.0,50,0.00,,,0.00,Wunderground v.1.15,2013-05-14 13:20:00,
2013-05-14 09:30:00,52.4,34.3,30.06,NW,312,2.0,2.0,50,0.00,,,0.00,Wunderground v.1.15,2013-05-14 13:30:00,
2013-05-14 09:40:00,53.3,33.6,30.05,NNE,20,2.0,15.0,47,0.00,,,0.00,Wunderground v.1.15,2013-05-14 13:40:00,
2013-05-14 09:50:00,52.8,33.1,30.05,North,8,3.0,15.0,47,0.00,,,0.00,Wunderground v.1.15,2013-05-14 13:50:00,
2013-05-14 10:00:00,53.9,33.6,30.05,North,352,2.0,2.0,46,0.00,,,0.00,Wunderground v.1.15,2013-05-14 14:00:00,
2013-05-14 10:10:00,54.7,33.8,30.05,NNE,15,3.0,15.0,45,0.00,,,0.00,Wunderground v.1.15,2013-05-14 14:10:00,
2013-05-14 10:20:00,55.0,31.1,30.05,NW,316,3.0,3.0,40,0.00,,,0.00,Wunderground v.1.15,2013-05-14 14:20:00,
2013-05-14 10:30:00,55.6,32.2,30.05,NNE,23,3.0,15.0,41,0.00,,,0.00,Wunderground v.1.15,2013-05-14 14:30:00,
2013-05-14 10:40:00,55.0,32.9,30.05,SW,224,2.0,15.0,43,0.00,,,0.00,Wunderground v.1.15,2013-05-14 14:40:00,
2013-05-14 10:50:00,53.6,29.8,30.05,WNW,301,3.0,15.0,40,0.00,,,0.00,Wunderground v.1.15,2013-05-14 14:50:00,
2013-05-14 11:00:00,53.6,30.4,30.05,NNW,332,2.0,15.0,41,0.00,,,0.00,Wunderground v.1.15,2013-05-14 15:00:00,
2013-05-14 11:11:00,53.3,30.8,30.05,WSW,249,1.0,15.0,42,0.00,,,0.00,Wunderground v.1.15,2013-05-14 15:11:00,
2013-05-14 11:20:00,53.5,32.7,30.05,East,84,1.0,15.0,45,0.00,,,0.00,Wunderground v.1.15,2013-05-14 15:20:00,
2013-05-14 11:30:00,54.2,30.4,30.05,SW,228,2.0,2.0,40,0.00,,,0.00,Wunderground v.1.15,2013-05-14 15:30:00,
2013-05-14 11:40:00,54.1,32.6,30.05,NW,316,1.0,15.0,44,0.00,,,0.00,Wunderground v.1.15,2013-05-14 15:40:00,
2013-05-14 11:50:00,54.2,33.3,30.04,North,9,3.0,3.0,45,0.00,,,0.00,Wunderground v.1.15,2013-05-14 15:50:00,
2013-05-14 12:00:00,54.4,32.3,30.05,West,261,1.0,15.0,43,0.00,,,0.00,Wunderground v.1.15,2013-05-14 16:00:00,
2013-05-14 12:10:00,54.8,29.0,30.04,NNE,14,1.0,15.0,37,0.00,,,0.00,Wunderground v.1.15,2013-05-14 16:10:00,
2013-05-14 12:20:00,54.5,30.0,30.05,NW,307,2.0,15.0,39,0.00,,,0.00,Wunderground v.1.15,2013-05-14 16:20:00,
2013-05-14 12:30:00,56.7,30.7,30.04,NNE,31,2.0,15.0,37,0.00,,,0.00,Wunderground v.1.15,2013-05-14 16:30:00,
2013-05-14 12:40:00,55.5,30.9,30.04,WNW,285,2.0,2.0,39,0.00,,,0.00,Wunderground v.1.15,2013-05-14 16:40:00,
2013-05-14 12:50:00,55.1,31.2,30.04,WNW,303,1.0,15.0,40,0.00,,,0.00,Wunderground v.1.15,2013-05-14 16:50:00,
2013-05-14 13:00:00,55.2,29.4,30.04,WNW,283,1.0,1.0,37,0.00,,,0.00,Wunderground v.1.15,2013-05-14 17:00:00,
2013-05-14 13:11:00,54.5,27.4,30.04,WSW,240,1.0,1.0,35,0.00,,,0.00,Wunderground v.1.15,2013-05-14 17:11:00,
2013-05-14 13:20:00,54.9,30.4,30.05,WNW,302,1.0,15.0,39,0.00,,,0.00,Wunderground v.1.15,2013-05-14 17:20:00,
2013-05-14 13:30:00,55.0,29.8,30.05,NW,307,2.0,15.0,38,0.00,,,0.00,Wunderground v.1.15,2013-05-14 17:30:00,
2013-05-14 13:40:00,55.3,32.6,30.05,WNW,297,2.0,2.0,42,0.00,,,0.00,Wunderground v.1.15,2013-05-14 17:40:00,
2013-05-14 13:50:00,55.8,33.6,30.04,WNW,292,1.0,15.0,43,0.00,,,0.00,Wunderground v.1.15,2013-05-14 17:50:00,
2013-05-14 14:00:00,56.2,29.6,30.04,NNE,13,2.0,15.0,36,0.00,,,0.00,Wunderground v.1.15,2013-05-14 18:00:00,
2013-05-14 14:11:00,55.4,30.8,30.05,West,269,2.0,2.0,39,0.00,,,0.00,Wunderground v.1.15,2013-05-14 18:11:00,
2013-05-14 14:20:00,54.5,30.6,30.04,WNW,291,1.0,1.0,40,0.00,,,0.00,Wunderground v.1.15,2013-05-14 18:20:00,
2013-05-14 14:30:00,54.6,31.9,30.04,NW,326,1.0,15.0,42,0.00,,,0.00,Wunderground v.1.15,2013-05-14 18:30:00,
2013-05-14 14:40:00,55.3,30.1,30.04,West,281,2.0,15.0,38,0.00,,,0.00,Wunderground v.1.15,2013-05-14 18:40:00,
2013-05-14 14:45:00,55.8,31.8,30.03,West,259,2.0,15.0,40,0.00,,,0.00,Wunderground v.1.15,2013-05-14 18:45:00,
2013-05-14 14:55:00,56.7,31.4,30.03,West,259,2.0,3.0,38,0.00,,,0.00,Wunderground v.1.15,2013-05-14 18:55:00,
2013-05-14 15:05:00,56.8,31.4,30.03,NW,314,2.0,15.0,38,0.00,,,0.00,Wunderground v.1.15,2013-05-14 19:05:00,
2013-05-14 15:11:00,56.6,30.6,30.02,NNW,334,2.0,15.0,37,0.00,,,0.00,Wunderground v.1.15,2013-05-14 19:11:00,
2013-05-14 15:20:00,57.0,32.9,30.02,NNW,333,3.0,3.0,40,0.00,,,0.00,Wunderground v.1.15,2013-05-14 19:20:00,
2013-05-14 15:25:00,56.7,30.0,30.02,SW,215,2.0,5.0,36,0.00,,,0.00,Wunderground v.1.15,2013-05-14 19:25:00,
2013-05-14 15:35:00,56.0,30.7,30.01,NNE,12,2.0,15.0,38,0.00,,,0.00,Wunderground v.1.15,2013-05-14 19:35:00,
2013-05-14 15:45:00,55.5,30.3,30.02,NW,308,3.0,15.0,38,0.00,,,0.00,Wunderground v.1.15,2013-05-14 19:45:00,
2013-05-14 15:55:00,56.5,33.1,30.01,NW,309,2.0,15.0,41,0.00,,,0.00,Wunderground v.1.15,2013-05-14 19:55:00,
2013-05-14 16:05:00,56.9,32.8,30.01,WNW,303,2.0,15.0,40,0.00,,,0.00,Wunderground v.1.15,2013-05-14 20:05:00,
2013-05-14 16:11:00,57.1,33.6,30.01,NNW,346,2.0,2.0,41,0.00,,,0.00,Wunderground v.1.15,2013-05-14 20:11:00,
2013-05-14 16:20:00,57.3,32.5,30.01,WSW,252,2.0,15.0,39,0.00,,,0.00,Wunderground v.1.15,2013-05-14 20:20:00,
2013-05-14 16:25:00,56.7,30.7,30.01,WSW,238,2.0,2.0,37,0.00,,,0.00,Wunderground v.1.15,2013-05-14 20:25:00,
2013-05-14 16:30:00,56.4,31.7,30.01,WNW,297,2.0,3.0,39,0.00,,,0.00,Wunderground v.1.15,2013-05-14 20:30:00,
2013-05-14 16:40:00,55.7,31.1,30.01,North,352,2.0,15.0,39,0.00,,,0.00,Wunderground v.1.15,2013-05-14 20:40:00,
2013-05-14 16:45:00,55.6,31.0,30.01,NW,324,1.0,15.0,39,0.00,,,0.00,Wunderground v.1.15,2013-05-14 20:45:00,
2013-05-14 16:55:00,55.8,30.5,30.01,NW,321,2.0,15.0,38,0.00,,,0.00,Wunderground v.1.15,2013-05-14 20:55:00,
2013-05-14 17:05:00,56.1,30.2,30.01,North,357,3.0,15.0,37,0.00,,,0.00,Wunderground v.1.15,2013-05-14 21:05:00,
2013-05-14 17:11:00,56.2,31.5,30.01,WNW,297,2.0,2.0,39,0.00,,,0.00,Wunderground v.1.15,2013-05-14 21:11:00,
2013-05-14 17:20:00,56.9,30.2,30.01,NW,312,1.0,15.0,36,0.00,,,0.00,Wunderground v.1.15,2013-05-14 21:20:00,
2013-05-14 17:30:00,57.0,30.3,30.00,WNW,295,2.0,15.0,36,0.00,,,0.00,Wunderground v.1.15,2013-05-14 21:30:00,
2013-05-14 17:40:00,56.6,29.9,30.01,WNW,302,2.0,15.0,36,0.00,,,0.00,Wunderground v.1.15,2013-05-14 21:40:00,
2013-05-14 17:50:00,56.6,31.3,30.01,ENE,58,1.0,15.0,38,0.00,,,0.00,Wunderground v.1.15,2013-05-14 21:50:00,
2013-05-14 18:00:00,55.8,30.5,30.01,WNW,297,2.0,2.0,38,0.00,,,0.00,Wunderground v.1.15,2013-05-14 22:00:00,
2013-05-14 18:11:00,55.8,30.5,30.00,WNW,297,1.0,15.0,38,0.00,,,0.00,Wunderground v.1.15,2013-05-14 22:11:00,
2013-05-14 18:20:00,55.7,29.8,30.00,SW,222,2.0,2.0,37,0.00,,,0.00,Wunderground v.1.15,2013-05-14 22:20:00,
2013-05-14 18:25:00,55.7,29.8,30.00,West,266,2.0,15.0,37,0.00,,,0.00,Wunderground v.1.15,2013-05-14 22:25:00,
2013-05-14 18:35:00,55.0,27.8,30.00,NNW,343,2.0,15.0,35,0.00,,,0.00,Wunderground v.1.15,2013-05-14 22:35:00,
2013-05-14 18:45:00,55.0,29.2,30.01,WNW,301,1.0,15.0,37,0.00,,,0.00,Wunderground v.1.15,2013-05-14 22:45:00,
2013-05-14 18:55:00,54.8,27.6,30.01,WNW,301,1.0,15.0,35,0.00,,,0.00,Wunderground v.1.15,2013-05-14 22:55:00,
2013-05-14 19:05:00,54.4,29.3,30.01,WNW,293,0.0,15.0,38,0.00,,,0.00,Wunderground v.1.15,2013-05-14 23:05:00,
2013-05-14 19:10:00,54.1,29.0,30.01,WNW,294,0.0,15.0,38,0.00,,,0.00,Wunderground v.1.15,2013-05-14 23:10:00,
2013-05-14 19:20:00,53.7,29.9,30.01,NW,314,0.0,15.0,40,0.00,,,0.00,Wunderground v.1.15,2013-05-14 23:20:00,
2013-05-14 19:30:00,53.0,30.5,30.01,West,266,0.0,15.0,42,0.00,,,0.00,Wunderground v.1.15,2013-05-14 23:30:00,
2013-05-14 19:40:00,52.1,30.8,30.02,WSW,249,0.0,15.0,44,0.00,,,0.00,Wunderground v.1.15,2013-05-14 23:40:00,
2013-05-14 19:50:00,51.4,29.1,30.02,WSW,249,0.0,15.0,42,0.00,,,0.00,Wunderground v.1.15,2013-05-14 23:50:00,
2013-05-14 20:00:00,50.8,29.1,30.02,WSW,249,0.0,15.0,43,0.00,,,0.00,Wunderground v.1.15,2013-05-15 00:00:00,
2013-05-14 20:11:00,50.0,31.6,30.02,WSW,249,0.0,15.0,49,0.00,,,0.00,Wunderground v.1.15,2013-05-15 00:11:00,
2013-05-14 20:20:00,49.0,30.1,30.03,WSW,249,0.0,15.0,48,0.00,,,0.00,Wunderground v.1.15,2013-05-15 00:20:00,
2013-05-14 20:30:00,48.4,32.5,30.03,WSW,249,0.0,15.0,54,0.00,,,0.00,Wunderground v.1.15,2013-05-15 00:30:00,
2013-05-14 20:40:00,47.6,33.1,30.04,WSW,248,0.0,15.0,57,0.00,,,0.00,Wunderground v.1.15,2013-05-15 00:40:00,
2013-05-14 20:50:00,46.7,34.0,30.04,WSW,249,0.0,15.0,61,0.00,,,0.00,Wunderground v.1.15,2013-05-15 00:50:00,
2013-05-14 21:00:00,46.0,34.1,30.05,WSW,249,0.0,15.0,63,0.00,,,0.00,Wunderground v.1.15,2013-05-15 01:00:00,
2013-05-14 21:11:00,45.2,32.9,30.05,WSW,249,0.0,15.0,62,0.00,,,0.00,Wunderground v.1.15,2013-05-15 01:11:00,
2013-05-14 21:20:00,44.9,34.2,30.05,WSW,249,0.0,15.0,66,0.00,,,0.00,Wunderground v.1.15,2013-05-15 01:20:00,
2013-05-14 21:30:00,44.7,35.9,30.06,WSW,249,0.0,15.0,71,0.00,,,0.00,Wunderground v.1.15,2013-05-15 01:30:00,
2013-05-14 21:40:00,44.0,34.1,30.06,South,186,0.0,15.0,68,0.00,,,0.00,Wunderground v.1.15,2013-05-15 01:40:00,
2013-05-14 21:50:00,43.3,35.2,30.06,South,186,0.0,15.0,73,0.00,,,0.00,Wunderground v.1.15,2013-05-15 01:50:00,
2013-05-14 22:00:00,42.5,34.5,30.07,South,184,0.0,15.0,73,0.00,,,0.00,Wunderground v.1.15,2013-05-15 02:00:00,
2013-05-14 22:11:00,41.8,32.4,30.07,South,185,0.0,15.0,69,0.00,,,0.00,Wunderground v.1.15,2013-05-15 02:11:00,
2013-05-14 22:20:00,41.5,33.1,30.06,South,184,0.0,15.0,72,0.00,,,0.00,Wunderground v.1.15,2013-05-15 02:20:00,
2013-05-14 22:25:00,41.2,33.9,30.07,South,184,0.0,15.0,75,0.00,,,0.00,Wunderground v.1.15,2013-05-15 02:25:00,
2013-05-14 22:35:00,40.8,33.8,30.07,South,184,0.0,15.0,76,0.00,,,0.00,Wunderground v.1.15,2013-05-15 02:35:00,
2013-05-14 22:45:00,40.5,34.5,30.07,South,184,0.0,15.0,79,0.00,,,0.00,Wunderground v.1.15,2013-05-15 02:45:00,
2013-05-14 22:55:00,40.3,34.3,30.07,SE,129,0.0,15.0,79,0.00,,,0.00,Wunderground v.1.15,2013-05-15 02:55:00,
2013-05-14 23:05:00,40.0,34.6,30.07,SE,131,1.0,15.0,81,0.00,,,0.00,Wunderground v.1.15,2013-05-15 03:05:00,
2013-05-14 23:11:00,39.7,34.7,30.07,SE,131,0.0,15.0,82,0.00,,,0.00,Wunderground v.1.15,2013-05-15 03:11:00,
2013-05-14 23:20:00,39.3,34.3,30.07,SE,131,0.0,15.0,82,0.00,,,0.00,Wunderground v.1.15,2013-05-15 03:20:00,
2013-05-14 23:25:00,39.0,34.3,30.07,SE,131,0.0,15.0,83,0.00,,,0.00,Wunderground v.1.15,2013-05-15 03:25:00,
2013-05-14 23:35:00,38.6,34.2,30.08,SE,131,0.0,15.0,84,0.00,,,0.00,Wunderground v.1.15,2013-05-15 03:35:00,
2013-05-14 23:45:00,38.2,34.1,30.08,SE,131,0.0,15.0,85,0.00,,,0.00,Wunderground v.1.15,2013-05-15 03:45:00,
2013-05-14 23:55:00,38.0,34.2,30.08,SE,131,0.0,15.0,86,0.00,,,0.00,Wunderground v.1.15,2013-05-15 03:55:00,